createdAt,value
2022-12-15T00:02:10.204Z,100648.13
2022-12-15T00:04:55.330Z,100649.81
2022-12-15T00:07:40.612Z,100639.41
2022-12-15T00:10:25.883Z,100645.78
2022-12-15T00:13:10.738Z,100650.41
2022-12-15T00:15:55.734Z,100647.75
2022-12-15T00:18:40.877Z,100646.75
2022-12-15T00:21:26.066Z,100654.75
2022-12-15T00:24:11.453Z,100664.59
2022-12-15T00:26:56.795Z,100673.59
2022-12-15T00:29:41.627Z,100671.94
2022-12-15T00:32:27.038Z,100679.78
2022-12-15T00:35:11.970Z,100675.28
2022-12-15T00:37:56.839Z,100669.09
2022-12-15T00:40:23.307Z,100672.75
2022-12-15T00:42:49.881Z,100660.88
2022-12-15T00:45:16.637Z,100668.72
2022-12-15T00:47:43.159Z,100676.44
2022-12-15T00:50:28.194Z,100670.59
2022-12-15T00:53:13.047Z,100671.72
2022-12-15T00:55:57.911Z,100675.41
2022-12-15T00:58:42.817Z,100676.25
2022-12-15T01:01:29.464Z,100688.06
2022-12-15T01:04:14.566Z,100682.56
2022-12-15T01:06:59.956Z,100685.06
2022-12-15T01:09:45.037Z,100683.94
2022-12-15T01:12:29.971Z,100685.56
2022-12-15T01:15:15.176Z,100684.72
2022-12-15T01:18:00.146Z,100682.03
2022-12-15T01:20:26.674Z,100683.88
2022-12-15T01:22:55.058Z,100659.94
2022-12-15T01:25:24.364Z,100679.47
2022-12-15T01:27:51.115Z,100687.97
2022-12-15T01:30:20.351Z,100697.16
2022-12-15T01:32:46.930Z,100693.78
2022-12-15T01:35:13.996Z,100699.50
2022-12-15T01:37:40.841Z,100701.00
2022-12-15T01:40:26.852Z,100708.88
2022-12-15T01:42:53.608Z,100703.41
2022-12-15T01:45:29.080Z,100709.72
2022-12-15T01:48:08.376Z,100702.03
2022-12-15T01:50:40.650Z,100711.69
2022-12-15T01:53:08.082Z,100696.94
2022-12-15T01:55:35.150Z,100709.34
2022-12-15T01:58:05.320Z,100714.84
2022-12-15T02:00:32.159Z,100702.09
2022-12-15T02:03:00.610Z,100705.47
2022-12-15T02:05:29.939Z,100712.19
2022-12-15T02:07:56.538Z,100718.03
2022-12-15T02:10:28.930Z,100722.34
2022-12-15T02:13:20.004Z,100725.69
2022-12-15T02:15:53.778Z,100731.84
2022-12-15T02:18:37.602Z,100730.00
2022-12-15T02:21:18.456Z,100734.69
2022-12-15T02:24:14.199Z,100738.03
2022-12-15T02:27:14.552Z,100739.03
2022-12-15T02:30:18.532Z,100741.00
2022-12-15T02:32:55.384Z,100744.81
2022-12-15T02:35:36.318Z,100747.50
2022-12-15T02:38:03.422Z,100739.63
2022-12-15T02:40:29.954Z,100745.09
2022-12-15T02:42:59.183Z,100741.38
2022-12-15T02:45:36.250Z,100747.63
2022-12-15T02:48:29.019Z,100742.44
2022-12-15T02:51:17.639Z,100738.09
2022-12-15T02:54:02.842Z,100748.78
2022-12-15T02:56:49.555Z,100747.94
2022-12-15T02:59:44.411Z,100751.44
2022-12-15T03:02:13.943Z,100755.09
2022-12-15T03:04:43.104Z,100760.56
2022-12-15T03:07:10.354Z,100749.09
2022-12-15T03:09:37.332Z,100754.25
2022-12-15T03:12:04.118Z,100750.06
2022-12-15T03:14:30.650Z,100754.56
2022-12-15T03:16:57.199Z,100752.03
2022-12-15T03:19:23.776Z,100757.53
2022-12-15T03:21:50.296Z,100759.50
2022-12-15T03:24:16.812Z,100762.34
2022-12-15T03:26:43.813Z,100751.81
2022-12-15T03:29:10.375Z,100769.50
2022-12-15T03:31:37.010Z,100761.63
2022-12-15T03:34:03.584Z,100768.25
2022-12-15T03:36:30.151Z,100775.94
2022-12-15T03:38:56.691Z,100780.63
2022-12-15T03:41:23.191Z,100786.63
2022-12-15T03:43:50.011Z,100779.47
2022-12-15T03:46:16.938Z,100765.91
2022-12-15T03:48:43.654Z,100772.91
2022-12-15T03:51:10.466Z,100786.63
2022-12-15T03:53:37.055Z,100779.63
2022-12-15T03:56:03.794Z,100778.78
2022-12-15T03:58:30.374Z,100787.47
2022-12-15T04:00:57.084Z,100782.97
2022-12-15T04:03:23.868Z,100773.78
2022-12-15T04:05:50.425Z,100782.69
2022-12-15T04:08:16.965Z,100772.84
2022-12-15T04:10:43.626Z,100770.34
2022-12-15T04:13:11.920Z,100773.81
2022-12-15T04:15:39.807Z,100770.34
2022-12-15T04:18:12.429Z,100778.19
2022-12-15T04:20:40.159Z,100778.03
2022-12-15T04:23:07.978Z,100776.06
2022-12-15T04:25:53.649Z,100775.41
2022-12-15T04:28:38.879Z,100763.53
2022-12-15T04:31:32.523Z,100769.25
2022-12-15T04:34:24.774Z,100767.59
2022-12-15T04:37:11.335Z,100773.78
2022-12-15T04:40:00.760Z,100772.38
2022-12-15T04:42:47.225Z,100774.34
2022-12-15T04:45:33.532Z,100775.50
2022-12-15T04:48:18.966Z,100781.81
2022-12-15T04:51:03.914Z,100777.44
2022-12-15T04:53:48.798Z,100772.44
2022-12-15T04:56:34.697Z,100783.09
2022-12-15T04:59:20.670Z,100783.09
2022-12-15T05:02:06.165Z,100786.59
2022-12-15T05:04:51.802Z,100787.88
2022-12-15T05:07:36.988Z,100791.41
2022-12-15T05:10:22.736Z,100791.53
2022-12-15T05:13:07.639Z,100790.69
2022-12-15T05:15:53.488Z,100802.19
2022-12-15T05:18:39.646Z,100802.19
2022-12-15T05:21:25.664Z,100806.69
2022-12-15T05:24:10.939Z,100815.53
2022-12-15T05:26:56.407Z,100812.19
2022-12-15T05:29:41.262Z,100808.69
2022-12-15T05:32:08.539Z,100801.66
2022-12-15T05:34:36.221Z,100809.97
2022-12-15T05:37:04.368Z,100811.78
2022-12-15T05:39:30.952Z,100801.41
2022-12-15T05:41:57.522Z,100809.28
2022-12-15T05:44:27.905Z,100802.69
2022-12-15T05:46:54.463Z,100809.28
2022-12-15T05:49:23.188Z,100811.00
2022-12-15T05:51:49.700Z,100816.56
2022-12-15T05:54:18.101Z,100823.59
2022-12-15T05:56:45.713Z,100823.59
2022-12-15T05:59:12.485Z,100825.41
2022-12-15T06:01:39.854Z,100819.53
2022-12-15T06:04:07.384Z,100830.19
2022-12-15T06:06:34.394Z,100821.50
2022-12-15T06:09:00.873Z,100828.09
2022-12-15T06:11:27.519Z,100829.09
2022-12-15T06:13:55.577Z,100840.44
2022-12-15T06:16:24.484Z,100847.59
2022-12-15T06:18:54.333Z,100835.97
2022-12-15T06:21:27.748Z,100836.81
2022-12-15T06:23:56.029Z,100840.44
2022-12-15T06:26:25.653Z,100840.44
2022-12-15T06:28:54.274Z,100845.78
2022-12-15T06:31:25.384Z,100836.56
2022-12-15T06:34:01.437Z,100842.44
2022-12-15T06:36:30.536Z,100840.75
2022-12-15T06:39:01.671Z,100831.91
2022-12-15T06:41:32.306Z,100833.19
2022-12-15T06:43:59.739Z,100842.88
2022-12-15T06:46:27.906Z,100841.63
2022-12-15T06:48:54.504Z,100848.34
2022-12-15T06:51:21.161Z,100842.38
2022-12-15T06:53:53.554Z,100854.25
2022-12-15T06:56:24.473Z,100835.91
2022-12-15T06:58:55.656Z,100846.94
2022-12-15T07:01:23.772Z,100843.16
2022-12-15T07:03:52.151Z,100841.63
2022-12-15T07:06:18.907Z,100844.28
2022-12-15T07:08:52.333Z,100845.28
2022-12-15T07:11:20.690Z,100852.56
2022-12-15T07:13:52.163Z,100865.75
2022-12-15T07:16:20.265Z,100858.75
2022-12-15T07:18:46.983Z,100855.22
2022-12-15T07:21:13.571Z,100860.69
2022-12-15T07:23:54.056Z,100864.19
2022-12-15T07:26:21.627Z,100862.97
2022-12-15T07:28:49.456Z,100876.84
2022-12-15T07:31:16.131Z,100868.91
2022-12-15T07:33:42.803Z,100871.09
2022-12-15T07:36:09.533Z,100860.72
2022-12-15T07:38:36.318Z,100865.47
2022-12-15T07:41:04.959Z,100874.19
2022-12-15T07:43:32.561Z,100860.84
2022-12-15T07:45:59.696Z,100872.19
2022-12-15T07:48:27.313Z,100870.69
2022-12-15T07:51:02.775Z,100880.19
2022-12-15T07:53:35.221Z,100881.03
2022-12-15T07:56:08.540Z,100883.91
2022-12-15T07:58:36.565Z,100885.81
2022-12-15T08:01:06.099Z,100893.69
2022-12-15T08:03:33.439Z,100874.06
2022-12-15T08:06:05.369Z,100885.13
2022-12-15T08:08:32.848Z,100887.34
2022-12-15T08:11:03.691Z,100904.19
2022-12-15T08:14:01.465Z,100898.84
2022-12-15T08:16:16.756Z,100898.00
2022-12-15T08:18:43.356Z,100903.22
2022-12-15T08:21:10.822Z,100899.69
2022-12-15T08:23:38.314Z,100906.72
2022-12-15T08:26:07.695Z,100904.72
2022-12-15T08:28:35.372Z,100913.56
2022-12-15T08:31:06.563Z,100897.44
2022-12-15T08:33:33.804Z,100911.47
2022-12-15T08:36:07.612Z,100898.84
2022-12-15T08:38:35.058Z,100899.81
2022-12-15T08:41:17.881Z,100906.97
2022-12-15T08:43:48.714Z,100908.38
2022-12-15T08:46:21.691Z,100907.41
2022-12-15T08:48:48.927Z,100903.75
2022-12-15T08:51:15.810Z,100905.69
2022-12-15T08:53:43.208Z,100928.28
2022-12-15T08:56:12.486Z,100923.81
2022-12-15T08:58:39.449Z,100917.34
2022-12-15T09:01:09.594Z,100924.34
2022-12-15T09:03:36.952Z,100929.53
2022-12-15T09:06:09.115Z,100927.72
2022-12-15T09:08:35.847Z,100933.75
2022-12-15T09:11:02.442Z,100937.25
2022-12-15T09:13:29.703Z,100932.75
2022-12-15T09:16:10.332Z,100927.28
2022-12-15T09:18:37.218Z,100940.31
2022-12-15T09:21:07.676Z,100941.16
2022-12-15T09:23:36.448Z,100954.38
2022-12-15T09:26:11.825Z,100960.38
2022-12-15T09:28:38.717Z,100965.41
2022-12-15T09:31:10.766Z,100962.50
2022-12-15T09:33:38.360Z,100962.19
2022-12-15T09:36:05.623Z,100960.22
2022-12-15T09:38:36.265Z,100953.34
2022-12-15T09:41:14.925Z,100971.47
2022-12-15T09:44:02.421Z,100975.66
2022-12-15T09:47:06.431Z,100987.72
2022-12-15T09:49:50.350Z,100988.25
2022-12-15T09:52:22.279Z,100990.78
2022-12-15T09:54:48.719Z,100997.50
2022-12-15T09:57:23.950Z,100987.38
2022-12-15T10:00:09.946Z,100982.75
2022-12-15T10:03:00.542Z,100981.47
2022-12-15T10:08:17.130Z,100981.72
2022-12-15T10:10:56.010Z,100987.47
2022-12-15T10:13:37.486Z,100996.03
2022-12-15T10:16:16.545Z,100990.56
2022-12-15T10:19:15.871Z,100991.38
2022-12-15T10:21:42.602Z,100990.63
2022-12-15T10:24:31.586Z,100981.50
2022-12-15T10:27:20.190Z,100977.25
2022-12-15T10:29:59.952Z,100969.91
2022-12-15T10:32:32.386Z,100978.19
2022-12-15T10:34:58.988Z,100984.94
2022-12-15T10:37:25.569Z,100973.94
2022-12-15T10:39:52.088Z,100975.16
2022-12-15T10:42:24.071Z,100975.00
2022-12-15T10:44:57.348Z,100987.63
2022-12-15T10:47:27.776Z,100981.13
2022-12-15T10:49:56.012Z,100985.19
2022-12-15T10:52:27.305Z,100987.28
2022-12-15T10:54:55.676Z,100983.97
2022-12-15T10:57:30.339Z,100983.66
2022-12-15T11:00:27.128Z,100984.06
2022-12-15T11:02:54.534Z,100983.75
2022-12-15T11:05:21.895Z,100982.78
2022-12-15T11:07:51.797Z,100981.16
2022-12-15T11:10:24.553Z,100978.88
2022-12-15T11:13:10.401Z,100974.22
2022-12-15T11:15:45.270Z,100980.13
2022-12-15T11:18:21.329Z,100981.63
2022-12-15T11:21:01.800Z,100977.34
2022-12-15T11:23:33.660Z,100968.69
2022-12-15T11:26:34.072Z,100969.78
2022-12-15T11:29:27.777Z,100966.16
2022-12-15T11:31:55.462Z,100970.59
2022-12-15T11:34:25.826Z,100975.88
2022-12-15T11:37:07.420Z,100982.97
2022-12-15T11:40:09.124Z,100977.38
2022-12-15T11:42:41.829Z,100982.78
2022-12-15T11:45:19.043Z,100965.56
2022-12-15T11:48:17.719Z,100969.47
2022-12-15T11:50:59.719Z,100973.22
2022-12-15T11:54:04.886Z,100975.31
2022-12-15T11:56:35.258Z,100974.28
2022-12-15T11:59:32.391Z,100972.81
2022-12-15T12:02:32.577Z,100968.34
2022-12-15T12:05:13.275Z,100962.34
2022-12-15T12:08:11.870Z,100964.38
2022-12-15T12:11:07.483Z,100966.41
2022-12-15T12:13:42.870Z,100962.91
2022-12-15T12:16:29.015Z,100952.72
2022-12-15T12:19:06.088Z,100948.69
2022-12-15T12:21:41.358Z,100953.44
2022-12-15T12:24:40.833Z,100941.75
2022-12-15T12:27:45.341Z,100949.78
2022-12-15T12:30:18.459Z,100947.59
2022-12-15T12:33:14.017Z,100934.38
2022-12-15T12:35:51.598Z,100936.72
2022-12-15T12:38:24.502Z,100933.38
2022-12-15T12:41:07.717Z,100934.41
2022-12-15T12:43:39.314Z,100935.22
2022-12-15T12:46:31.100Z,100939.44
2022-12-15T12:49:27.216Z,100937.91
2022-12-15T12:51:56.780Z,100941.44
2022-12-15T12:54:35.126Z,100932.91
2022-12-15T12:57:22.566Z,100926.34
2022-12-15T12:59:58.530Z,100922.31
2022-12-15T13:02:25.486Z,100924.16
2022-12-15T13:04:58.658Z,100923.16
2022-12-15T13:07:30.799Z,100915.63
2022-12-15T13:10:09.575Z,100924.50
2022-12-15T13:12:53.206Z,100907.03
2022-12-15T13:15:29.227Z,100910.22
2022-12-15T13:18:00.920Z,100898.50
2022-12-15T13:20:30.549Z,100897.31
2022-12-15T13:23:35.739Z,100900.13
2022-12-15T13:26:03.279Z,100884.69
2022-12-15T13:28:45.531Z,100891.75
2022-12-15T13:31:21.434Z,100895.75
2022-12-15T13:33:57.240Z,100891.91
2022-12-15T13:36:41.800Z,100890.53
2022-12-15T13:39:11.348Z,100886.66
2022-12-15T13:44:39.802Z,100876.91
2022-12-15T13:47:06.230Z,100869.53
2022-12-15T13:49:53.125Z,100868.50
2022-12-15T13:52:38.113Z,100867.47
2022-12-15T13:55:27.774Z,100879.84
2022-12-15T13:58:00.036Z,100875.22
2022-12-15T14:00:26.601Z,100861.28
2022-12-15T14:03:06.539Z,100876.84
2022-12-15T14:05:33.343Z,100863.81
2022-12-15T14:08:01.886Z,100867.72
2022-12-15T14:10:38.952Z,100874.88
2022-12-15T14:13:24.794Z,100872.72
2022-12-15T14:16:00.339Z,100857.34
2022-12-15T14:18:33.480Z,100871.25
2022-12-15T14:21:01.983Z,100871.25
2022-12-15T14:23:38.333Z,100862.03
2022-12-15T14:26:07.582Z,100869.94
2022-12-15T14:28:36.287Z,100868.22
2022-12-15T14:31:07.006Z,100867.56
2022-12-15T14:33:37.421Z,100858.66
2022-12-15T14:36:11.754Z,100857.75
2022-12-15T14:38:43.073Z,100856.44
2022-12-15T14:41:19.224Z,100849.72
2022-12-15T14:43:46.544Z,100846.50
2022-12-15T14:46:33.342Z,100849.31
2022-12-15T14:49:04.039Z,100850.34
2022-12-15T14:51:38.762Z,100840.22
2022-12-15T14:54:05.367Z,100838.75
2022-12-15T14:56:31.902Z,100837.63
2022-12-15T14:59:04.301Z,100841.00
2022-12-15T15:01:41.688Z,100836.78
2022-12-15T15:03:03.565Z,100985.53
2022-12-15T15:03:05.497Z,100886.31
2022-12-15T15:04:23.037Z,100836.47
2022-12-15T15:06:57.729Z,100838.59
2022-12-15T15:09:27.222Z,100840.25
2022-12-15T15:12:06.710Z,100841.50
2022-12-15T15:14:39.237Z,100847.81
2022-12-15T15:17:21.236Z,100839.59
2022-12-15T15:19:52.988Z,100834.00
2022-12-15T15:22:30.009Z,100831.31
2022-12-15T15:24:56.625Z,100830.63
2022-12-15T15:27:30.032Z,100835.34
2022-12-15T15:30:22.160Z,100832.66
2022-12-15T15:32:57.418Z,100834.66
2022-12-15T15:35:29.992Z,100827.31
2022-12-15T15:38:05.585Z,100826.97
2022-12-15T15:40:32.092Z,100807.38
2022-12-15T15:42:59.728Z,100818.53
2022-12-15T15:45:26.295Z,100820.63
2022-12-15T15:47:56.371Z,100817.03
2022-12-15T15:50:29.573Z,100823.13
2022-12-15T15:52:57.087Z,100826.75
2022-12-15T15:55:28.900Z,100827.59
2022-12-15T15:57:56.170Z,100826.59
2022-12-15T16:00:24.700Z,100825.31
2022-12-15T16:02:51.848Z,100820.28
2022-12-15T16:05:18.525Z,100825.41
2022-12-15T16:07:46.571Z,100835.41
2022-12-15T16:10:16.215Z,100839.44
2022-12-15T16:12:49.173Z,100835.66
2022-12-15T16:15:18.350Z,100839.03
2022-12-15T16:17:45.930Z,100826.19
2022-12-15T16:20:14.793Z,100846.41
2022-12-15T16:22:44.160Z,100851.84
2022-12-15T16:25:20.380Z,100852.66
2022-12-15T16:27:47.038Z,100855.91
2022-12-15T16:30:19.919Z,100851.34
2022-12-15T16:32:46.459Z,100855.91
2022-12-15T16:35:12.997Z,100853.38
2022-12-15T16:37:46.340Z,100859.69
2022-12-15T16:40:15.543Z,100854.16
2022-12-15T16:42:42.274Z,100848.16
2022-12-15T16:45:17.930Z,100850.34
2022-12-15T16:47:47.671Z,100843.00
2022-12-15T16:50:16.518Z,100854.84
2022-12-15T16:52:48.007Z,100851.53
2022-12-15T16:55:27.534Z,100850.53
2022-12-15T16:57:58.375Z,100857.25
2022-12-15T17:00:28.580Z,100864.25
2022-12-15T17:02:56.016Z,100869.25
2022-12-15T17:05:25.863Z,100857.53
2022-12-15T17:07:58.660Z,100863.91
2022-12-15T17:10:27.975Z,100868.25
2022-12-15T17:13:01.258Z,100869.16
2022-12-15T17:15:27.933Z,100871.66
2022-12-15T17:17:55.285Z,100863.63
2022-12-15T17:20:29.422Z,100872.69
2022-12-15T17:23:01.988Z,100870.69
2022-12-15T17:26:09.225Z,100868.78
2022-12-15T17:28:28.956Z,100877.69
2022-12-15T17:30:55.510Z,100863.00
2022-12-15T17:33:27.943Z,100884.75
2022-12-15T17:35:58.725Z,100885.09
2022-12-15T17:38:25.935Z,100885.59
2022-12-15T17:40:53.465Z,100891.28
2022-12-15T17:43:30.616Z,100893.16
2022-12-15T17:46:01.861Z,100902.19
2022-12-15T17:48:28.472Z,100902.03
2022-12-15T17:50:54.995Z,100902.88
2022-12-15T17:53:23.937Z,100918.97
2022-12-15T17:55:52.540Z,100915.31
2022-12-15T17:58:24.390Z,100909.75
2022-12-15T18:00:56.093Z,100914.13
2022-12-15T18:03:23.471Z,100917.63
2022-12-15T18:05:52.120Z,100917.63
2022-12-15T18:08:20.783Z,100915.81
2022-12-15T18:10:50.496Z,100916.13
2022-12-15T18:13:20.951Z,100916.47
2022-12-15T18:15:48.541Z,100922.16
2022-12-15T18:18:17.556Z,100921.50
2022-12-15T18:20:45.508Z,100921.00
2022-12-15T18:23:17.673Z,100927.19
2022-12-15T18:25:44.310Z,100923.00
2022-12-15T18:28:22.843Z,100939.75
2022-12-15T18:30:54.022Z,100940.94
2022-12-15T18:33:22.182Z,100937.25
2022-12-15T18:35:50.896Z,100929.03
2022-12-15T18:38:25.806Z,100939.59
2022-12-15T18:40:54.833Z,100936.06
2022-12-15T18:43:23.615Z,100934.41
2022-12-15T18:45:51.297Z,100921.16
2022-12-15T18:48:29.394Z,100931.72
2022-12-15T18:50:58.168Z,100924.00
2022-12-15T18:53:27.649Z,100929.22
2022-12-15T18:55:54.642Z,100924.16
2022-12-15T18:58:29.133Z,100937.38
2022-12-15T19:00:58.086Z,100927.72
2022-12-15T19:03:25.424Z,100943.44
2022-12-15T19:06:01.946Z,100938.44
2022-12-15T19:08:32.101Z,100944.47
2022-12-15T19:11:02.028Z,100952.50
2022-12-15T19:13:33.884Z,100950.81
2022-12-15T19:16:03.042Z,100950.97
2022-12-15T19:18:47.890Z,100953.78
2022-12-15T19:21:38.769Z,100957.50
2022-12-15T19:24:07.762Z,100957.81
2022-12-15T19:26:34.238Z,100959.88
2022-12-15T19:29:01.042Z,100960.53
2022-12-15T19:31:27.696Z,100951.41
2022-12-15T19:33:54.266Z,100959.50
2022-12-15T19:36:23.669Z,100946.78
2022-12-15T19:38:53.682Z,100951.63
2022-12-15T19:41:20.467Z,100957.69
2022-12-15T19:43:47.031Z,100948.63
2022-12-15T19:46:17.036Z,100948.44
2022-12-15T19:48:43.606Z,100949.13
2022-12-15T19:51:16.208Z,100955.84
2022-12-15T19:53:43.787Z,100958.69
2022-12-15T19:56:15.578Z,100956.19
2022-12-15T19:58:42.296Z,100952.75
2022-12-15T20:01:14.690Z,100954.91
2022-12-15T20:03:42.762Z,100948.13
2022-12-15T20:06:18.765Z,100944.53
2022-12-15T20:08:47.895Z,100953.78
2022-12-15T20:11:20.843Z,100942.53
2022-12-15T20:13:48.829Z,100933.28
2022-12-15T20:16:17.475Z,100929.94
2022-12-15T20:18:48.784Z,100935.03
2022-12-15T20:21:22.061Z,100934.63
2022-12-15T20:23:51.805Z,100934.47
2022-12-15T20:26:19.101Z,100930.66
2022-12-15T20:28:46.683Z,100933.34
2022-12-15T20:31:18.464Z,100933.63
2022-12-15T20:33:46.360Z,100942.38
2022-12-15T20:36:27.433Z,100940.31
2022-12-15T20:38:54.432Z,100932.84
2022-12-15T20:41:24.677Z,100936.13
2022-12-15T20:43:52.019Z,100928.31
2022-12-15T20:46:21.697Z,100930.75
2022-12-15T20:48:50.363Z,100936.50
2022-12-15T20:51:23.898Z,100931.44
2022-12-15T20:53:51.758Z,100932.88
2022-12-15T20:56:20.906Z,100930.03
2022-12-15T20:58:47.657Z,100930.63
2022-12-15T21:01:18.325Z,100924.91
2022-12-15T21:03:45.843Z,100932.97
2022-12-15T21:06:12.499Z,100931.88
2022-12-15T21:08:39.374Z,100936.06
2022-12-15T21:11:18.524Z,100941.56
2022-12-15T21:13:47.339Z,100940.47
2022-12-15T21:16:19.594Z,100943.41
2022-12-15T21:21:38.938Z,100948.34
2022-12-15T21:24:26.965Z,100943.00
2022-12-15T21:26:53.818Z,100948.34
2022-12-15T21:29:23.977Z,100936.63
2022-12-15T21:31:50.514Z,100933.16
2022-12-15T21:34:17.086Z,100938.84
2022-12-15T21:36:46.611Z,100932.78
2022-12-15T21:39:29.993Z,100936.91
2022-12-15T21:42:02.772Z,100930.97
2022-12-15T21:44:29.293Z,100930.69
2022-12-15T21:46:55.867Z,100937.56
2022-12-15T21:49:22.400Z,100925.09
2022-12-15T21:52:00.087Z,100929.53
2022-12-15T21:54:31.536Z,100924.91
2022-12-15T21:56:59.468Z,100919.38
2022-12-15T21:59:29.651Z,100928.66
2022-12-15T22:01:56.593Z,100926.16
2022-12-15T22:04:26.651Z,100930.84
2022-12-15T22:06:53.328Z,100936.47
2022-12-15T22:09:21.081Z,100939.38
2022-12-15T22:11:50.906Z,100932.75
2022-12-15T22:14:32.979Z,100925.56
2022-12-15T22:17:00.934Z,100928.00
2022-12-15T22:19:27.622Z,100931.81
2022-12-15T22:21:54.195Z,100936.34
2022-12-15T22:24:21.610Z,100936.50
2022-12-15T22:26:48.373Z,100928.63
2022-12-15T22:29:21.159Z,100929.63
2022-12-15T22:31:50.077Z,100925.28
2022-12-15T22:34:21.975Z,100935.16
2022-12-15T22:36:49.525Z,100946.00
2022-12-15T22:39:18.722Z,100937.44
2022-12-15T22:41:47.679Z,100958.00
2022-12-15T22:44:26.489Z,100961.06
2022-12-15T22:46:56.136Z,100964.00
2022-12-15T22:49:26.424Z,100959.78
2022-12-15T22:51:52.913Z,100951.13
2022-12-15T22:54:24.182Z,100967.81
2022-12-15T22:57:00.537Z,100960.47
2022-12-15T22:59:42.331Z,100959.53
2022-12-15T23:02:09.224Z,100948.28
2022-12-15T23:04:36.205Z,100968.81
2022-12-15T23:07:05.240Z,100966.50
2022-12-15T23:09:31.842Z,100962.16
2022-12-15T23:11:59.087Z,100958.53
2022-12-15T23:14:44.099Z,100965.66
2022-12-15T23:17:12.313Z,100966.03
2022-12-15T23:19:43.815Z,100953.63
2022-12-15T23:22:10.607Z,100951.19
2022-12-15T23:24:37.129Z,100964.13
2022-12-15T23:27:03.642Z,100964.84
2022-12-15T23:29:30.426Z,100974.16
2022-12-15T23:31:57.105Z,100971.34
2022-12-15T23:34:23.704Z,100979.19
2022-12-15T23:36:50.691Z,100973.38
2022-12-15T23:39:17.171Z,100978.34
2022-12-15T23:41:43.649Z,100976.16
2022-12-15T23:44:12.135Z,100969.97
2022-12-15T23:46:38.648Z,100971.38
2022-12-15T23:49:05.224Z,100983.00
2022-12-15T23:51:31.716Z,100980.97
2022-12-15T23:53:58.189Z,100979.94
2022-12-15T23:56:25.993Z,100974.75
2022-12-15T23:58:57.306Z,100987.94
